Terminal Aerodrome Forecast
Issued by NWS Cleveland, OH

Home | Current Version | Previous Version | Graphics & Text | Print | Product List | Glossary On
Versions: 1 2 3 4 5 6 7 8 9 10 11 12 13 14 15 16 17 18 19 20
000
FTUS41 KCLE 181100
TAFERI
TAF
KERI 181134Z 1812/1912 18005KT P6SM SKC
     FM181300 36006KT P6SM SCT040
     FM181800 01010KT P6SM BKN028
     FM190000 VRB05KT P6SM SCT250=

USA.gov is the U.S. government's official web portal to all federal, state and local government web resources and services.